createdAt,value
2017-07-08T00:00:56.660Z,17.28
2017-07-08T00:02:08.708Z,17.31
2017-07-08T00:03:21.020Z,17.27
2017-07-08T00:04:33.329Z,17.3
2017-07-08T00:05:45.624Z,17.27
2017-07-08T00:06:58.290Z,17.27
2017-07-08T00:08:10.320Z,17.34
2017-07-08T00:09:22.892Z,17.3
2017-07-08T00:10:35.234Z,17.24
2017-07-08T00:11:47.251Z,17.35
2017-07-08T00:13:00.069Z,17.31
2017-07-08T00:14:12.323Z,17.28
2017-07-08T00:15:24.960Z,17.31
2017-07-08T00:16:37.191Z,17.32
2017-07-08T00:17:49.759Z,17.38
2017-07-08T00:19:02.351Z,17.41
2017-07-08T00:20:14.625Z,17.37
2017-07-08T00:21:26.636Z,17.41
2017-07-08T00:22:38.649Z,17.47
2017-07-08T00:23:51.524Z,17.44
2017-07-08T00:25:03.777Z,17.42
2017-07-08T00:26:15.437Z,17.39
2017-07-08T00:27:27.454Z,17.41
2017-07-08T00:28:40.136Z,17.39
2017-07-08T00:29:52.743Z,17.44
2017-07-08T00:31:05.042Z,17.41
2017-07-08T00:32:17.581Z,17.44
2017-07-08T00:33:29.930Z,17.56
2017-07-08T00:34:42.566Z,17.52
2017-07-08T00:35:54.857Z,17.41
2017-07-08T00:37:07.468Z,17.41
2017-07-08T00:38:19.810Z,17.39
2017-07-08T00:39:32.135Z,17.44
2017-07-08T00:40:44.402Z,17.44
2017-07-08T00:41:56.671Z,17.39
2017-07-08T00:43:08.641Z,17.49
2017-07-08T00:44:21.233Z,17.46
2017-07-08T00:45:33.848Z,17.47
2017-07-08T00:46:46.139Z,17.39
2017-07-08T00:47:58.782Z,17.39
2017-07-08T00:49:11.001Z,17.38
2017-07-08T00:50:23.596Z,17.38
2017-07-08T00:51:35.899Z,17.28
2017-07-08T00:52:48.166Z,17.27
2017-07-08T00:54:00.099Z,17.31
2017-07-08T00:55:12.315Z,17.27
2017-07-08T00:56:25.210Z,17.23
2017-07-08T00:57:37.793Z,17.23
2017-07-08T00:58:50.097Z,17.16
2017-07-08T01:00:02.332Z,17.13
2017-07-08T01:01:14.933Z,17.09
2017-07-08T01:02:27.519Z,17.1
2017-07-08T01:03:40.138Z,17.13
2017-07-08T01:04:52.744Z,17.04
2017-07-08T01:06:05.045Z,17.04
2017-07-08T01:07:17.573Z,17.01
2017-07-08T01:08:30.183Z,17.04
2017-07-08T01:09:42.786Z,16.99
2017-07-08T01:10:55.433Z,16.98
2017-07-08T01:12:07.410Z,16.99
2017-07-08T01:13:19.691Z,16.97
2017-07-08T01:14:32.288Z,16.94
2017-07-08T01:15:44.905Z,16.91
2017-07-08T01:16:57.534Z,16.83
2017-07-08T01:18:10.129Z,16.89
2017-07-08T01:19:22.145Z,16.74
2017-07-08T01:20:34.795Z,16.74
2017-07-08T01:21:46.773Z,16.82
2017-07-08T01:22:58.732Z,16.79
2017-07-08T01:24:09.480Z,16.79
2017-07-08T01:25:21.805Z,16.8
2017-07-08T01:26:34.102Z,16.77
2017-07-08T01:27:46.336Z,16.72
2017-07-08T01:28:58.914Z,16.72
2017-07-08T01:30:11.250Z,16.66
2017-07-08T01:31:23.893Z,16.64
2017-07-08T01:32:36.234Z,16.66
2017-07-08T01:33:48.858Z,16.58
2017-07-08T01:35:01.479Z,16.51
2017-07-08T01:36:14.091Z,16.54
2017-07-08T01:37:26.718Z,16.58
2017-07-08T01:38:39.011Z,16.55
2017-07-08T01:39:51.626Z,16.54
2017-07-08T01:41:04.215Z,16.55
2017-07-08T01:42:16.797Z,16.46
2017-07-08T01:43:29.431Z,16.43
2017-07-08T01:44:42.060Z,16.47
2017-07-08T01:45:54.663Z,16.44
2017-07-08T01:47:07.274Z,16.4
2017-07-08T01:48:19.602Z,16.47
2017-07-08T01:49:32.243Z,16.39
2017-07-08T01:50:44.788Z,16.44
2017-07-08T01:51:56.775Z,16.41
2017-07-08T01:53:09.415Z,16.31
2017-07-08T01:54:22.053Z,16.29
2017-07-08T01:55:34.685Z,16.34
2017-07-08T01:56:47.301Z,16.37
2017-07-08T01:58:00.006Z,16.32
2017-07-08T01:59:12.607Z,16.41
2017-07-08T02:00:24.873Z,16.29
2017-07-08T02:01:37.515Z,16.26
2017-07-08T02:02:49.830Z,16.36
2017-07-08T02:04:02.148Z,16.37
2017-07-08T02:05:14.724Z,16.28
2017-07-08T02:06:27.390Z,16.31
2017-07-08T02:07:39.710Z,16.4
2017-07-08T02:08:51.158Z,16.34
2017-07-08T02:10:02.795Z,16.34
2017-07-08T02:11:14.461Z,16.32
2017-07-08T02:12:27.316Z,16.36
2017-07-08T02:13:39.859Z,16.31
2017-07-08T02:14:52.418Z,16.28
2017-07-08T02:16:05.029Z,16.26
2017-07-08T02:17:17.007Z,16.28
2017-07-08T02:18:29.583Z,16.28
2017-07-08T02:19:41.828Z,16.26
2017-07-08T02:20:54.438Z,16.22
2017-07-08T02:22:07.075Z,16.22
2017-07-08T02:23:19.098Z,16.29
2017-07-08T02:24:30.707Z,16.25
2017-07-08T02:25:42.950Z,16.26
2017-07-08T02:26:55.550Z,16.24
2017-07-08T02:28:07.817Z,16.29
2017-07-08T02:29:20.446Z,16.24
2017-07-08T02:30:33.101Z,16.26
2017-07-08T02:31:45.040Z,16.26
2017-07-08T02:32:56.734Z,16.21
2017-07-08T02:34:09.324Z,16.22
2017-07-08T02:35:21.969Z,16.24
2017-07-08T02:36:34.240Z,16.24
2017-07-08T02:37:46.510Z,16.21
2017-07-08T02:38:59.214Z,16.22
2017-07-08T02:40:11.530Z,16.25
2017-07-08T02:41:24.154Z,16.18
2017-07-08T02:42:36.408Z,16.26
2017-07-08T02:43:49.036Z,16.18
2017-07-08T02:45:01.611Z,16.16
2017-07-08T02:46:13.858Z,16.18
2017-07-08T02:47:26.191Z,16.13
2017-07-08T02:48:38.756Z,16.06
2017-07-08T02:49:51.044Z,16.13
2017-07-08T02:51:03.668Z,16.06
2017-07-08T02:52:15.898Z,16.12
2017-07-08T02:53:27.564Z,16.16
2017-07-08T02:54:40.153Z,16.06
2017-07-08T02:55:52.763Z,16.12
2017-07-08T02:57:05.346Z,16.06
2017-07-08T02:58:17.965Z,16.17
2017-07-08T02:59:30.233Z,16.13
2017-07-08T03:00:42.822Z,16.05
2017-07-08T03:01:55.379Z,16
2017-07-08T03:03:07.682Z,16.06
2017-07-08T03:04:20.303Z,16
2017-07-08T03:05:32.930Z,16.09
2017-07-08T03:06:45.587Z,15.99
2017-07-08T03:07:58.159Z,16.08
2017-07-08T03:09:10.157Z,16.06
2017-07-08T03:10:22.783Z,16.08
2017-07-08T03:11:35.134Z,16.1
2017-07-08T03:12:47.444Z,16.06
2017-07-08T03:13:59.973Z,16.08
2017-07-08T03:15:12.289Z,16.1
2017-07-08T03:16:24.266Z,16.26
2017-07-08T03:17:36.868Z,16.16
2017-07-08T03:18:49.126Z,16.18
2017-07-08T03:20:01.803Z,16.18
2017-07-08T03:21:14.127Z,16.25
2017-07-08T03:22:26.411Z,16.25
2017-07-08T03:23:38.123Z,16.37
2017-07-08T03:24:50.433Z,16.4
2017-07-08T03:26:02.474Z,16.32
2017-07-08T03:27:14.781Z,16.37
2017-07-08T03:28:27.317Z,16.34
2017-07-08T03:29:39.311Z,16.39
2017-07-08T03:30:51.894Z,16.47
2017-07-08T03:32:04.254Z,16.49
2017-07-08T03:33:16.335Z,16.44
2017-07-08T03:34:28.703Z,16.49
2017-07-08T03:35:41.298Z,16.57
2017-07-08T03:36:53.867Z,16.58
2017-07-08T03:38:06.189Z,16.61
2017-07-08T03:39:18.706Z,16.64
2017-07-08T03:40:31.349Z,16.73
2017-07-08T03:41:43.622Z,16.72
2017-07-08T03:42:55.617Z,16.79
2017-07-08T03:44:07.900Z,16.76
2017-07-08T03:45:20.510Z,16.87
2017-07-08T03:46:32.840Z,16.91
2017-07-08T03:47:44.831Z,16.95
2017-07-08T03:48:57.440Z,16.89
2017-07-08T03:50:10.032Z,17.05
2017-07-08T03:51:22.661Z,17.02
2017-07-08T03:52:35.227Z,17.05
2017-07-08T03:53:47.255Z,17.05
2017-07-08T03:54:59.574Z,16.98
2017-07-08T03:56:11.857Z,17.12
2017-07-08T03:57:24.453Z,17.16
2017-07-08T03:58:37.025Z,17.1
2017-07-08T03:59:49.295Z,17.19
2017-07-08T04:01:02.153Z,17.2
2017-07-08T04:02:14.521Z,17.23
2017-07-08T04:03:27.072Z,17.32
2017-07-08T04:04:39.343Z,17.31
2017-07-08T04:05:51.641Z,17.34
2017-07-08T04:07:03.909Z,17.38
2017-07-08T04:08:15.590Z,17.38
2017-07-08T04:09:28.238Z,17.47
2017-07-08T04:10:40.828Z,17.44
2017-07-08T04:11:53.423Z,17.38
2017-07-08T04:13:05.702Z,17.56
2017-07-08T04:14:18.304Z,17.59
2017-07-08T04:15:30.893Z,17.5
2017-07-08T04:16:43.556Z,17.54
2017-07-08T04:17:55.822Z,17.59
2017-07-08T04:19:08.121Z,17.6
2017-07-08T04:20:20.121Z,17.49
2017-07-08T04:21:32.684Z,17.68
2017-07-08T04:22:45.512Z,17.66
2017-07-08T04:23:57.434Z,17.69
2017-07-08T04:25:10.105Z,17.73
2017-07-08T04:26:22.473Z,17.76
2017-07-08T04:27:34.401Z,17.84
2017-07-08T04:28:46.649Z,17.84
2017-07-08T04:29:59.302Z,17.91
2017-07-08T04:31:11.945Z,17.97
2017-07-08T04:32:24.580Z,17.88
2017-07-08T04:33:37.522Z,17.91
2017-07-08T04:34:50.192Z,18
2017-07-08T04:36:02.516Z,18.09
2017-07-08T04:37:14.772Z,18
2017-07-08T04:38:27.323Z,18.18
2017-07-08T04:39:39.590Z,18.12
2017-07-08T04:40:51.914Z,18.13
2017-07-08T04:42:04.165Z,18.24
2017-07-08T04:43:15.792Z,18.24
2017-07-08T04:44:28.395Z,18.36
2017-07-08T04:45:40.391Z,18.27
2017-07-08T04:46:52.719Z,18.36
2017-07-08T04:48:05.320Z,18.43
2017-07-08T04:49:17.594Z,18.48
2017-07-08T04:50:30.224Z,18.45
2017-07-08T04:51:42.808Z,18.52
2017-07-08T04:52:55.054Z,18.55
2017-07-08T04:54:07.335Z,18.63
2017-07-08T04:55:19.914Z,18.61
2017-07-08T04:56:32.237Z,18.64
2017-07-08T04:57:44.582Z,18.79
2017-07-08T04:58:56.891Z,18.81
2017-07-08T05:00:08.880Z,18.71
2017-07-08T05:01:21.478Z,18.79
2017-07-08T05:02:34.103Z,18.76
2017-07-08T05:03:46.655Z,18.83
2017-07-08T05:04:58.929Z,18.81
2017-07-08T05:06:11.234Z,18.79
2017-07-08T05:07:22.874Z,18.83
2017-07-08T05:08:34.245Z,18.98
2017-07-08T05:09:45.882Z,19.04
2017-07-08T05:10:58.184Z,18.98
2017-07-08T05:12:10.426Z,19
2017-07-08T05:13:22.132Z,19.11
2017-07-08T05:14:34.422Z,19.09
2017-07-08T05:15:46.692Z,19.2
2017-07-08T05:16:59.293Z,19.19
2017-07-08T05:18:11.847Z,19.26
2017-07-08T05:19:24.491Z,19.27
2017-07-08T05:20:36.445Z,19.34
2017-07-08T05:21:48.724Z,19.34
2017-07-08T05:23:00.975Z,19.41
2017-07-08T05:24:12.732Z,19.45
2017-07-08T05:25:25.339Z,19.45
2017-07-08T05:26:37.962Z,19.48
2017-07-08T05:27:50.520Z,19.52
2017-07-08T05:29:02.478Z,19.55
2017-07-08T05:30:14.402Z,19.59
2017-07-08T05:31:26.973Z,19.62
2017-07-08T05:32:39.335Z,19.66
2017-07-08T05:33:51.283Z,19.77
2017-07-08T05:35:03.598Z,19.66
2017-07-08T05:36:16.229Z,19.81
2017-07-08T05:37:28.213Z,19.84
2017-07-08T05:38:40.512Z,19.93
2017-07-08T05:39:52.780Z,19.97
2017-07-08T05:41:05.400Z,20
2017-07-08T05:42:17.777Z,19.9
2017-07-08T05:43:30.301Z,20.03
2017-07-08T05:44:42.596Z,20.03
2017-07-08T05:45:54.886Z,20.02
2017-07-08T05:47:07.185Z,20.04
2017-07-08T05:48:19.168Z,20.15
2017-07-08T05:49:32.016Z,20.19
2017-07-08T05:50:44.325Z,20.22
2017-07-08T05:51:56.340Z,20.29
2017-07-08T05:53:08.284Z,20.22
2017-07-08T05:54:20.604Z,20.21
2017-07-08T05:55:33.288Z,20.29
2017-07-08T05:56:45.543Z,20.29
2017-07-08T05:57:57.855Z,20.3
2017-07-08T05:59:10.192Z,20.24
2017-07-08T06:00:22.786Z,20.29
2017-07-08T06:01:35.069Z,20.21
2017-07-08T06:02:47.443Z,20.37
2017-07-08T06:03:59.378Z,20.32
2017-07-08T06:05:10.758Z,20.39
2017-07-08T06:06:23.039Z,20.46
2017-07-08T06:07:35.029Z,20.32
2017-07-08T06:08:47.288Z,20.42
2017-07-08T06:09:59.865Z,20.33
2017-07-08T06:11:12.461Z,20.39
2017-07-08T06:12:25.045Z,20.39
2017-07-08T06:13:37.046Z,20.44
2017-07-08T06:14:49.051Z,20.39
2017-07-08T06:16:01.323Z,20.4
2017-07-08T06:17:13.011Z,20.44
2017-07-08T06:18:25.371Z,20.4
2017-07-08T06:19:37.683Z,20.44
2017-07-08T06:20:50.007Z,20.37
2017-07-08T06:22:02.296Z,20.4
2017-07-08T06:23:13.622Z,20.3
2017-07-08T06:24:24.642Z,20.33
2017-07-08T06:25:37.255Z,20.36
2017-07-08T06:26:49.897Z,20.33
2017-07-08T06:28:02.486Z,20.39
2017-07-08T06:29:14.779Z,20.34
2017-07-08T06:30:27.133Z,20.34
2017-07-08T06:31:39.466Z,20.32
2017-07-08T06:32:52.135Z,20.22
2017-07-08T06:34:03.775Z,20.37
2017-07-08T06:35:15.755Z,20.33
2017-07-08T06:36:27.703Z,20.4
2017-07-08T06:37:40.336Z,20.42
2017-07-08T06:38:52.605Z,20.34
2017-07-08T06:40:04.552Z,20.52
2017-07-08T06:41:17.154Z,20.5
2017-07-08T06:42:29.756Z,20.49
2017-07-08T06:43:42.021Z,20.49
2017-07-08T06:44:54.319Z,20.58
2017-07-08T06:46:06.524Z,20.55
2017-07-08T06:47:18.152Z,20.55
2017-07-08T06:48:30.748Z,20.5
2017-07-08T06:49:43.089Z,20.58
2017-07-08T06:50:55.702Z,20.49
2017-07-08T06:52:08.026Z,20.44
2017-07-08T06:53:20.608Z,20.44
2017-07-08T06:54:32.526Z,20.39
2017-07-08T06:55:45.116Z,20.34
2017-07-08T06:56:57.799Z,20.32
2017-07-08T06:58:10.114Z,20.19
2017-07-08T06:59:22.456Z,20.24
2017-07-08T07:00:35.086Z,20.22
2017-07-08T07:01:47.415Z,20.17
2017-07-08T07:03:00.000Z,20.22
2017-07-08T07:04:12.585Z,20.36
2017-07-08T07:05:24.961Z,20.39
2017-07-08T07:06:37.596Z,20.33
2017-07-08T07:07:50.273Z,20.34
2017-07-08T07:09:02.547Z,20.39
2017-07-08T07:10:14.814Z,20.39
2017-07-08T07:11:27.096Z,20.44
2017-07-08T07:12:39.735Z,20.4
2017-07-08T07:13:52.299Z,20.37
2017-07-08T07:15:03.616Z,20.46
2017-07-08T07:16:16.248Z,20.44
2017-07-08T07:17:28.254Z,20.39
2017-07-08T07:18:40.536Z,20.32
2017-07-08T07:19:53.123Z,20.37
2017-07-08T07:21:05.485Z,20.34
2017-07-08T07:22:17.819Z,20.44
2017-07-08T07:23:29.491Z,20.48
2017-07-08T07:24:41.426Z,20.4
2017-07-08T07:25:53.715Z,20.46
2017-07-08T07:27:05.679Z,20.49
2017-07-08T07:28:18.286Z,20.48
2017-07-08T07:29:30.884Z,20.46
2017-07-08T07:30:42.562Z,20.44
2017-07-08T07:31:55.162Z,20.46
2017-07-08T07:33:07.447Z,20.37
2017-07-08T07:34:19.432Z,20.5
2017-07-08T07:35:31.411Z,20.49
2017-07-08T07:36:43.718Z,20.42
2017-07-08T07:37:56.312Z,20.42
2017-07-08T07:39:08.581Z,20.4
2017-07-08T07:40:19.984Z,20.39
2017-07-08T07:41:32.248Z,20.48
2017-07-08T07:42:44.213Z,20.49
2017-07-08T07:43:55.903Z,20.48
2017-07-08T07:45:07.899Z,20.48
2017-07-08T07:46:20.267Z,20.52
2017-07-08T07:47:32.573Z,20.5
2017-07-08T07:48:44.857Z,20.59
2017-07-08T07:49:57.468Z,20.53
2017-07-08T07:51:09.816Z,20.64
2017-07-08T07:52:22.119Z,20.53
2017-07-08T07:53:33.744Z,20.59
2017-07-08T07:54:46.027Z,20.59
2017-07-08T07:55:58.630Z,20.64
2017-07-08T07:57:11.247Z,20.6
2017-07-08T07:58:23.523Z,20.66
2017-07-08T07:59:35.825Z,20.63
2017-07-08T08:00:47.465Z,20.66
2017-07-08T08:01:59.756Z,20.75
2017-07-08T08:03:11.718Z,20.77
2017-07-08T08:04:24.325Z,20.8
2017-07-08T08:05:36.642Z,20.86
2017-07-08T08:06:48.614Z,20.8
2017-07-08T08:08:00.281Z,20.78
2017-07-08T08:09:12.213Z,20.89
2017-07-08T08:10:24.818Z,20.89
2017-07-08T08:11:37.380Z,20.92
2017-07-08T08:12:49.352Z,21.08
2017-07-08T08:14:01.330Z,21.03
2017-07-08T08:15:13.937Z,21.11
2017-07-08T08:16:26.532Z,21.07
2017-07-08T08:17:38.574Z,21.1
2017-07-08T08:18:50.241Z,21.03
2017-07-08T08:20:02.925Z,21.14
2017-07-08T08:21:15.466Z,21.19
2017-07-08T08:22:27.728Z,21.25
2017-07-08T08:23:39.098Z,21.23
2017-07-08T08:24:51.732Z,21.43
2017-07-08T08:26:04.032Z,21.41
2017-07-08T08:27:16.646Z,21.44
2017-07-08T08:28:28.891Z,21.5
2017-07-08T08:29:41.442Z,21.48
2017-07-08T08:30:53.998Z,21.63
2017-07-08T08:32:05.909Z,21.66
2017-07-08T08:33:18.250Z,21.81
2017-07-08T08:34:30.512Z,21.88
2017-07-08T08:35:43.163Z,21.92
2017-07-08T08:36:54.479Z,22.06
2017-07-08T08:38:07.119Z,21.97
2017-07-08T08:39:19.711Z,22.12
2017-07-08T08:40:32.358Z,22.08
2017-07-08T08:41:44.658Z,22.1
2017-07-08T08:42:56.979Z,22.15
2017-07-08T08:44:09.623Z,22.08
2017-07-08T08:45:22.180Z,22.21
2017-07-08T08:46:33.885Z,22.22
2017-07-08T08:47:46.212Z,22.38
2017-07-08T08:48:58.571Z,22.41
2017-07-08T08:50:10.809Z,22.53
2017-07-08T08:51:23.076Z,22.62
2017-07-08T08:52:35.675Z,22.62
2017-07-08T08:53:48.305Z,22.63
2017-07-08T08:55:00.677Z,22.58
2017-07-08T08:56:13.270Z,22.53
2017-07-08T08:57:25.577Z,22.68
2017-07-08T08:58:37.517Z,22.7
2017-07-08T08:59:50.158Z,22.67
2017-07-08T09:01:02.129Z,22.76
2017-07-08T09:02:14.452Z,22.76
2017-07-08T09:03:26.688Z,22.67
2017-07-08T09:04:38.704Z,22.71
2017-07-08T09:05:51.328Z,22.62
2017-07-08T09:07:03.965Z,22.74
2017-07-08T09:08:16.535Z,22.77
2017-07-08T09:09:29.083Z,22.83
2017-07-08T09:10:41.465Z,22.98
2017-07-08T09:11:53.743Z,23.04
2017-07-08T09:13:06.346Z,23.06
2017-07-08T09:14:18.603Z,23.06
2017-07-08T09:15:31.182Z,23.02
2017-07-08T09:16:43.188Z,23.02
2017-07-08T09:17:55.475Z,23.04
2017-07-08T09:19:07.748Z,23.02
2017-07-08T09:20:20.351Z,23.04
2017-07-08T09:21:32.965Z,22.99
2017-07-08T09:22:44.907Z,22.95
2017-07-08T09:23:56.529Z,22.96
2017-07-08T09:25:08.474Z,22.95
2017-07-08T09:26:20.987Z,22.98
2017-07-08T09:27:33.297Z,22.93
2017-07-08T09:28:45.266Z,22.96
2017-07-08T09:29:57.200Z,22.95
2017-07-08T09:31:09.466Z,22.98
2017-07-08T09:32:22.075Z,22.93
2017-07-08T09:33:34.396Z,22.73
2017-07-08T09:34:47.004Z,22.7
2017-07-08T09:35:59.271Z,22.63
2017-07-08T09:37:11.562Z,22.61
2017-07-08T09:38:24.181Z,22.58
2017-07-08T09:39:36.781Z,22.61
2017-07-08T09:40:49.025Z,22.62
2017-07-08T09:42:01.668Z,22.67
2017-07-08T09:43:14.458Z,22.77
2017-07-08T09:44:26.797Z,22.88
2017-07-08T09:45:38.764Z,22.93
2017-07-08T09:46:51.336Z,22.99
2017-07-08T09:48:03.697Z,22.99
2017-07-08T09:49:15.668Z,23.1
2017-07-08T09:50:28.264Z,23.1
2017-07-08T09:51:40.561Z,23.08
2017-07-08T09:52:52.866Z,23.02
2017-07-08T09:54:04.852Z,23.06
2017-07-08T09:55:16.524Z,22.95
2017-07-08T09:56:29.130Z,22.93
2017-07-08T09:57:41.414Z,22.77
2017-07-08T09:58:54.047Z,22.7
2017-07-08T10:00:05.756Z,22.71
2017-07-08T10:01:18.336Z,22.61
2017-07-08T10:02:30.303Z,22.55
2017-07-08T10:03:42.561Z,22.59
2017-07-08T10:04:54.846Z,22.53
2017-07-08T10:06:07.110Z,22.47
2017-07-08T10:07:19.385Z,22.41
2017-07-08T10:08:31.661Z,22.41
2017-07-08T10:09:43.660Z,22.53
2017-07-08T10:10:55.937Z,22.47
2017-07-08T10:12:07.966Z,22.53
2017-07-08T10:13:20.247Z,22.59
2017-07-08T10:14:32.587Z,22.55
2017-07-08T10:15:44.779Z,22.52
2017-07-08T10:16:56.427Z,22.51
2017-07-08T10:18:07.769Z,22.46
2017-07-08T10:19:20.317Z,22.46
2017-07-08T10:20:32.590Z,22.62
2017-07-08T10:21:44.984Z,22.59
2017-07-08T10:22:56.914Z,22.62
2017-07-08T10:24:08.849Z,22.56
2017-07-08T10:25:21.157Z,22.58
2017-07-08T10:26:33.759Z,22.56
2017-07-08T10:27:45.799Z,22.49
2017-07-08T10:28:58.414Z,22.41
2017-07-08T10:30:10.673Z,22.51
2017-07-08T10:31:23.176Z,22.43
2017-07-08T10:32:35.479Z,22.4
2017-07-08T10:33:47.770Z,22.33
2017-07-08T10:35:00.097Z,22.36
2017-07-08T10:36:11.752Z,22.31
2017-07-08T10:37:24.324Z,22.31
2017-07-08T10:38:36.538Z,22.22
2017-07-08T10:39:48.823Z,22.16
2017-07-08T10:41:01.122Z,22.22
2017-07-08T10:42:13.669Z,22.12
2017-07-08T10:43:26.234Z,22.08
2017-07-08T10:44:38.487Z,22.18
2017-07-08T10:45:50.777Z,22.18
2017-07-08T10:47:03.423Z,22.26
2017-07-08T10:48:15.745Z,22.23
2017-07-08T10:49:28.276Z,22.31
2017-07-08T10:50:40.565Z,22.36
2017-07-08T10:51:53.185Z,22.36
2017-07-08T10:53:04.570Z,22.41
2017-07-08T10:54:16.798Z,22.52
2017-07-08T10:55:29.404Z,22.62
2017-07-08T10:56:41.695Z,22.77
2017-07-08T10:57:54.310Z,22.89
2017-07-08T10:59:06.286Z,22.99
2017-07-08T11:00:18.531Z,23.14
2017-07-08T11:01:30.806Z,23.18
2017-07-08T11:02:43.089Z,23.37
2017-07-08T11:03:54.759Z,23.44
2017-07-08T11:05:06.173Z,23.49
2017-07-08T11:06:17.801Z,23.49
2017-07-08T11:07:30.357Z,23.48
2017-07-08T11:08:42.616Z,23.52
2017-07-08T11:09:54.588Z,23.54
2017-07-08T11:11:06.590Z,23.64
2017-07-08T11:12:18.527Z,23.71
2017-07-08T11:13:30.817Z,23.89
2017-07-08T11:14:43.398Z,23.95
2017-07-08T11:15:55.350Z,23.99
2017-07-08T11:17:06.997Z,23.96
2017-07-08T11:18:19.221Z,23.99
2017-07-08T11:19:31.514Z,24.01
2017-07-08T11:20:43.811Z,24.06
2017-07-08T11:21:56.372Z,24.13
2017-07-08T11:23:07.730Z,24.11
2017-07-08T11:24:19.724Z,24.18
2017-07-08T11:25:32.003Z,24.19
2017-07-08T11:26:44.605Z,24.28
2017-07-08T11:27:56.622Z,24.4
2017-07-08T11:29:08.919Z,24.44
2017-07-08T11:30:21.281Z,24.56
2017-07-08T11:31:33.573Z,24.58
2017-07-08T11:32:45.481Z,24.63
2017-07-08T11:33:58.050Z,24.69
2017-07-08T11:35:10.043Z,24.68
2017-07-08T11:36:22.683Z,24.59
2017-07-08T11:37:34.328Z,24.62
2017-07-08T11:38:46.626Z,24.63
2017-07-08T11:39:59.215Z,24.53
2017-07-08T11:41:11.498Z,24.59
2017-07-08T11:42:23.802Z,24.63
2017-07-08T11:43:36.100Z,24.63
2017-07-08T11:44:47.754Z,24.59
2017-07-08T11:45:58.498Z,24.74
2017-07-08T11:47:10.877Z,24.71
2017-07-08T11:48:23.467Z,24.66
2017-07-08T11:49:35.672Z,24.71
2017-07-08T11:50:48.285Z,24.81
2017-07-08T11:52:00.560Z,24.81
2017-07-08T11:53:12.579Z,24.89
2017-07-08T11:54:24.858Z,25.04
2017-07-08T11:55:37.457Z,25.18
2017-07-08T11:56:49.406Z,25.26
2017-07-08T11:58:01.085Z,25.48
2017-07-08T11:59:13.297Z,25.61
2017-07-08T12:00:25.293Z,25.86
2017-07-08T12:01:37.921Z,26.07
2017-07-08T12:02:50.496Z,26.27
2017-07-08T12:04:02.498Z,26.39
2017-07-08T12:05:14.221Z,26.55
2017-07-08T12:06:26.567Z,26.66
2017-07-08T12:07:38.902Z,26.79
2017-07-08T12:08:51.449Z,27.11
2017-07-08T12:10:03.725Z,27.47
2017-07-08T12:11:15.451Z,27.64
2017-07-08T12:12:28.071Z,27.86
2017-07-08T12:13:40.693Z,28.04
2017-07-08T12:14:53.034Z,28.35
2017-07-08T12:16:05.636Z,28.59
2017-07-08T12:17:17.287Z,28.68
2017-07-08T12:18:29.267Z,28.86
2017-07-08T12:19:41.323Z,29.02
2017-07-08T12:20:53.958Z,29.34
2017-07-08T12:22:06.269Z,29.43
2017-07-08T12:23:17.947Z,29.73
2017-07-08T12:24:29.657Z,29.79
2017-07-08T12:25:42.245Z,30.05
2017-07-08T12:26:53.937Z,30.31
2017-07-08T12:28:06.516Z,30.49
2017-07-08T12:29:19.204Z,30.62
2017-07-08T12:30:31.787Z,30.85
2017-07-08T12:31:44.413Z,30.89
2017-07-08T12:32:57.023Z,31.05
2017-07-08T12:34:09.016Z,31.17
2017-07-08T12:35:20.351Z,31.26
2017-07-08T12:36:32.958Z,31.42
2017-07-08T12:37:45.362Z,31.73
2017-07-08T12:38:57.974Z,31.98
2017-07-08T12:40:09.629Z,32.17
2017-07-08T12:41:22.464Z,32.39
2017-07-08T12:42:33.802Z,32.45
2017-07-08T12:43:46.066Z,32.75
2017-07-08T12:44:58.435Z,32.79
2017-07-08T12:46:10.114Z,32.88
2017-07-08T12:47:22.401Z,32.67
2017-07-08T12:48:35.043Z,32.68
2017-07-08T12:49:47.341Z,32.35
2017-07-08T12:50:59.606Z,32.2
2017-07-08T12:52:12.212Z,32.05
2017-07-08T12:53:24.885Z,31.89
2017-07-08T12:54:37.202Z,31.92
2017-07-08T12:55:49.466Z,31.98
2017-07-08T12:57:01.785Z,31.93
2017-07-08T12:58:14.386Z,31.89
2017-07-08T12:59:26.037Z,31.9
2017-07-08T13:00:38.338Z,31.93
2017-07-08T13:01:50.643Z,31.73
2017-07-08T13:03:03.128Z,31.54
2017-07-08T13:04:15.436Z,31.37
2017-07-08T13:05:27.666Z,31.08
2017-07-08T13:06:40.252Z,31.17
2017-07-08T13:07:52.589Z,30.93
2017-07-08T13:09:04.601Z,31.07
2017-07-08T13:10:17.197Z,31.07
2017-07-08T13:11:29.793Z,31.07
2017-07-08T13:12:42.126Z,30.99
2017-07-08T13:13:54.671Z,30.77
2017-07-08T13:15:06.685Z,30.91
2017-07-08T13:16:18.960Z,30.93
2017-07-08T13:17:31.266Z,30.91
2017-07-08T13:18:43.880Z,31.08
2017-07-08T13:19:55.895Z,30.99
2017-07-08T13:21:08.160Z,31.08
2017-07-08T13:22:20.187Z,31.33
2017-07-08T13:23:31.522Z,31.44
2017-07-08T13:24:43.770Z,31.44
2017-07-08T13:25:56.388Z,31.42
2017-07-08T13:27:08.919Z,31.42
2017-07-08T13:28:21.473Z,31.57
2017-07-08T13:29:34.010Z,31.55
2017-07-08T13:30:46.008Z,31.55
2017-07-08T13:31:58.274Z,31.57
2017-07-08T13:33:10.595Z,31.23
2017-07-08T13:34:22.897Z,31.25
2017-07-08T13:35:35.554Z,31.18
2017-07-08T13:36:48.207Z,31.11
2017-07-08T13:38:00.903Z,31.17
2017-07-08T13:39:12.546Z,31.15
2017-07-08T13:40:25.101Z,31.29
2017-07-08T13:41:37.759Z,31.39
2017-07-08T13:42:49.695Z,31.3
2017-07-08T13:44:01.382Z,31.3
2017-07-08T13:45:14.078Z,31.47
2017-07-08T13:46:26.600Z,31.62
2017-07-08T13:47:38.938Z,31.51
2017-07-08T13:48:50.588Z,31.57
2017-07-08T13:50:02.254Z,31.72
2017-07-08T13:51:13.927Z,31.92
2017-07-08T13:52:26.223Z,31.98
2017-07-08T13:53:38.255Z,32.04
2017-07-08T13:54:49.917Z,32.2
2017-07-08T13:56:02.181Z,32.23
2017-07-08T13:57:14.807Z,32.26
2017-07-08T13:58:27.078Z,32.38
2017-07-08T13:59:39.377Z,32.35
2017-07-08T14:00:51.301Z,32.38
2017-07-08T14:02:03.889Z,32.42
2017-07-08T14:03:16.487Z,32.45
2017-07-08T14:04:28.833Z,32.51
2017-07-08T14:05:41.214Z,32.49
2017-07-08T14:06:53.893Z,32.54
2017-07-08T14:08:06.195Z,32.66
2017-07-08T14:09:18.440Z,32.67
2017-07-08T14:10:30.693Z,32.64
2017-07-08T14:11:42.991Z,32.68
2017-07-08T14:12:55.246Z,32.64
2017-07-08T14:14:07.581Z,32.63
2017-07-08T14:15:20.189Z,32.72
2017-07-08T14:16:32.216Z,32.73
2017-07-08T14:17:44.840Z,32.71
2017-07-08T14:18:56.808Z,32.66
2017-07-08T14:20:08.830Z,32.66
2017-07-08T14:21:21.400Z,32.56
2017-07-08T14:22:33.332Z,32.48
2017-07-08T14:23:44.968Z,32.35
2017-07-08T14:24:57.821Z,32.3
2017-07-08T14:26:09.512Z,32.41
2017-07-08T14:27:22.128Z,32.48
2017-07-08T14:28:34.367Z,32.46
2017-07-08T14:29:46.953Z,32.54
2017-07-08T14:30:58.922Z,32.48
2017-07-08T14:32:10.579Z,32.53
2017-07-08T14:33:22.917Z,32.45
2017-07-08T14:34:35.230Z,32.45
2017-07-08T14:35:47.505Z,32.44
2017-07-08T14:36:59.165Z,32.38
2017-07-08T14:38:11.793Z,32.09
2017-07-08T14:39:24.087Z,31.93
2017-07-08T14:40:36.116Z,31.72
2017-07-08T14:41:48.387Z,31.7
2017-07-08T14:43:00.101Z,31.6
2017-07-08T14:44:12.675Z,31.54
2017-07-08T14:45:24.943Z,31.41
2017-07-08T14:46:37.514Z,31.42
2017-07-08T14:47:49.752Z,31.33
2017-07-08T14:49:02.383Z,31.1
2017-07-08T14:50:14.701Z,31.18
2017-07-08T14:51:26.385Z,31.15
2017-07-08T14:52:38.661Z,30.96
2017-07-08T14:53:50.674Z,30.81
2017-07-08T14:55:02.964Z,30.74
2017-07-08T14:56:15.598Z,30.58
2017-07-08T14:57:27.869Z,30.35
2017-07-08T14:58:40.427Z,30.27
2017-07-08T14:59:53.032Z,30.02
2017-07-08T15:01:05.307Z,29.98
2017-07-08T15:02:17.872Z,29.76
2017-07-08T15:03:30.135Z,29.74
2017-07-08T15:04:42.429Z,29.52
2017-07-08T15:05:55.005Z,29.35
2017-07-08T15:07:06.987Z,29.1
2017-07-08T15:08:19.224Z,28.84
2017-07-08T15:09:31.962Z,28.72
2017-07-08T15:10:43.933Z,28.6
2017-07-08T15:11:56.503Z,28.34
2017-07-08T15:13:09.091Z,28.16
2017-07-08T15:14:21.068Z,28.04
2017-07-08T15:15:33.345Z,27.86
2017-07-08T15:16:44.986Z,27.67
2017-07-08T15:17:57.235Z,27.61
2017-07-08T15:19:09.521Z,27.48
2017-07-08T15:20:21.152Z,27.4
2017-07-08T15:21:33.395Z,27.26
2017-07-08T15:22:45.689Z,27.18
2017-07-08T15:23:57.288Z,27.05
2017-07-08T15:25:09.568Z,26.96
2017-07-08T15:26:22.210Z,26.83
2017-07-08T15:27:34.174Z,26.79
2017-07-08T15:28:46.758Z,26.64
2017-07-08T15:29:59.365Z,26.63
2017-07-08T15:31:11.038Z,26.52
2017-07-08T15:32:23.341Z,26.52
2017-07-08T15:33:35.606Z,26.52